Time;durP1;ratioP1;P1;durP2;ratioP2;P2;SDS_P1;SDS_P2;PMS_P1;PMS_P2;Temp;Humidity;BMP_temperature;BMP_pressure;BME280_temperature;BME280_humidity;BME280_pressure;Samples;Min_cycle;Max_cycle;Signal;HPM_P1;HPM_P2
2024/01/20 00:00:47;;;;;;;0.20;0.20;;;;;;;1.66;69.82;102679.19;5094083;28;20426;-79
2024/01/20 00:03:13;;;;;;;2.58;1.50;;;;;;;1.63;69.71;102685.97;5088344;28;20067;-79
2024/01/20 00:05:39;;;;;;;0.20;0.20;;;;;;;1.64;69.99;102679.94;5085039;28;20096;-80
2024/01/20 00:08:05;;;;;;;0.35;0.35;;;;;;;1.67;69.71;102682.66;5093072;28;20039;-77
2024/01/20 00:10:31;;;;;;;1.80;1.65;;;;;;;1.61;69.93;102680.69;5088153;28;20394;-79
2024/01/20 00:12:58;;;;;;;0.20;0.20;;;;;;;1.59;70.05;102677.97;5093596;28;20024;-79
2024/01/20 00:15:24;;;;;;;0.20;0.20;;;;;;;1.65;69.66;102687.84;5095063;28;20016;-80
2024/01/20 00:17:50;;;;;;;0.20;0.20;;;;;;;1.58;69.66;102689.28;5089560;28;20030;-80
2024/01/20 00:20:16;;;;;;;0.22;0.22;;;;;;;1.60;69.58;102690.22;5091863;28;20033;-80
2024/01/20 00:22:43;;;;;;;0.20;0.20;;;;;;;1.58;69.60;102693.59;5090974;28;20028;-80
2024/01/20 00:25:09;;;;;;;0.30;0.30;;;;;;;1.49;69.75;102696.66;5090390;28;20502;-80
2024/01/20 00:27:36;;;;;;;0.57;0.57;;;;;;;1.38;69.75;102692.66;5092583;28;20017;-81
2024/01/20 00:30:04;;;;;;;0.77;0.77;;;;;;;1.43;69.76;102698.97;5091327;28;20446;-80
2024/01/20 00:32:30;;;;;;;2.15;2.05;;;;;;;1.40;69.68;102691.00;5095131;28;20016;-80
2024/01/20 00:34:57;;;;;;;0.40;0.40;;;;;;;1.35;69.88;102702.97;5093572;28;20391;-78
2024/01/20 00:37:23;;;;;;;1.05;0.65;;;;;;;1.33;69.71;102701.97;5090704;28;20059;-78
2024/01/20 00:39:49;;;;;;;0.30;0.30;;;;;;;1.26;69.99;102708.63;5092835;28;20035;-78
2024/01/20 00:42:15;;;;;;;0.50;0.50;;;;;;;1.22;70.46;102704.97;5094021;28;20400;-79
2024/01/20 00:44:42;;;;;;;0.30;0.30;;;;;;;1.28;70.32;102705.28;5094009;28;20051;-79
2024/01/20 00:47:08;;;;;;;0.30;0.30;;;;;;;1.26;69.97;102699.06;5093499;28;20111;-79
2024/01/20 00:49:35;;;;;;;0.30;0.30;;;;;;;1.29;69.84;102700.94;5093885;28;20024;-79
2024/01/20 00:52:01;;;;;;;0.38;0.38;;;;;;;1.22;70.20;102697.16;5092127;28;20069;-78
2024/01/20 00:54:27;;;;;;;1.52;1.45;;;;;;;1.18;70.28;102695.19;5093886;28;20028;-78
2024/01/20 00:56:53;;;;;;;0.20;0.20;;;;;;;1.14;70.34;102703.69;5092522;28;20039;-78
2024/01/20 00:59:19;;;;;;;0.20;0.20;;;;;;;1.15;70.31;102705.50;5096800;28;20028;-79
2024/01/20 01:01:46;;;;;;;0.20;0.20;;;;;;;1.18;70.01;102700.41;5098237;28;20057;-79
2024/01/20 01:04:12;;;;;;;0.10;0.10;;;;;;;1.09;70.13;102699.97;5098986;28;20035;-79
2024/01/20 01:06:38;;;;;;;0.22;0.22;;;;;;;1.13;70.46;102697.59;5100604;28;20024;-79
2024/01/20 01:09:04;;;;;;;0.30;0.30;;;;;;;1.05;70.58;102698.94;5095944;28;20043;-79
2024/01/20 01:11:30;;;;;;;0.55;0.55;;;;;;;1.07;70.29;102702.53;5097162;28;20057;-79
2024/01/20 01:13:57;;;;;;;0.73;0.73;;;;;;;1.10;70.39;102707.00;5099794;28;20024;-79
2024/01/20 01:16:23;;;;;;;0.40;0.40;;;;;;;1.04;70.21;102709.31;5096878;28;20028;-79
2024/01/20 01:18:49;;;;;;;0.32;0.32;;;;;;;0.99;70.64;102713.41;5097282;28;20070;-79
2024/01/20 01:21:15;;;;;;;0.65;0.65;;;;;;;0.93;70.71;102714.88;5095412;28;20043;-78
2024/01/20 01:23:42;;;;;;;0.20;0.20;;;;;;;0.99;70.62;102714.28;5096156;28;20056;-78
2024/01/20 01:26:08;;;;;;;0.25;0.25;;;;;;;0.93;70.72;102719.19;5094251;28;20455;-79
2024/01/20 01:28:34;;;;;;;3.90;1.15;;;;;;;0.99;70.63;102723.84;5098446;28;20016;-79
2024/01/20 01:31:00;;;;;;;0.20;0.20;;;;;;;0.93;70.60;102727.91;5096274;28;20346;-78
2024/01/20 01:33:26;;;;;;;0.68;0.68;;;;;;;0.88;70.87;102723.31;5094009;28;20016;-78
2024/01/20 01:35:52;;;;;;;0.20;0.20;;;;;;;0.88;70.86;102726.78;5094088;28;20517;-78
2024/01/20 01:38:19;;;;;;;0.25;0.25;;;;;;;0.92;71.02;102722.63;5093399;28;20369;-79
2024/01/20 01:40:45;;;;;;;0.25;0.25;;;;;;;0.83;70.74;102714.34;5085945;28;20062;-77
2024/01/20 01:43:11;;;;;;;0.30;0.30;;;;;;;0.80;70.95;102717.69;5090981;28;20035;-81
2024/01/20 01:45:37;;;;;;;0.20;0.20;;;;;;;0.85;71.05;102726.66;5095283;28;20065;-79
2024/01/20 01:48:03;;;;;;;1.55;1.45;;;;;;;0.86;71.18;102728.44;5094245;28;20110;-78
2024/01/20 01:50:30;;;;;;;0.20;0.20;;;;;;;0.86;71.07;102727.53;5098223;28;20031;-78
2024/01/20 01:52:57;;;;;;;0.20;0.20;;;;;;;0.92;70.76;102717.41;5087939;28;20033;-78
2024/01/20 01:55:24;;;;;;;0.57;0.57;;;;;;;0.92;70.85;102722.63;5097587;28;20029;-79
2024/01/20 01:57:53;;;;;;;0.20;0.20;;;;;;;0.88;70.80;102732.00;5096228;28;20099;-79
2024/01/20 02:00:19;;;;;;;0.20;0.20;;;;;;;0.87;70.93;102725.00;5095896;28;20057;-79
2024/01/20 02:02:45;;;;;;;0.20;0.20;;;;;;;0.91;70.82;102724.34;5096092;28;20057;-79
2024/01/20 02:05:12;;;;;;;2.15;2.05;;;;;;;0.89;70.75;102719.88;5090447;28;20024;-78
2024/01/20 02:07:40;;;;;;;0.75;0.75;;;;;;;0.95;70.51;102733.22;5104387;28;20016;-77
2024/01/20 02:10:07;;;;;;;1.70;1.60;;;;;;;0.91;70.83;102721.75;5100549;28;20028;-78
2024/01/20 02:12:35;;;;;;;0.30;0.30;;;;;;;0.87;71.20;102722.38;5095897;28;20114;-79
2024/01/20 02:15:01;;;;;;;0.47;0.47;;;;;;;0.86;71.23;102725.84;5097576;28;20035;-79
2024/01/20 02:17:27;;;;;;;0.40;0.40;;;;;;;0.94;71.15;102727.09;5094434;28;20059;-79
2024/01/20 02:19:54;;;;;;;0.20;0.20;;;;;;;0.89;70.92;102725.97;5090918;28;20035;-79
2024/01/20 02:22:20;;;;;;;2.17;2.00;;;;;;;0.91;71.14;102737.41;5093179;28;20028;-79
2024/01/20 02:24:49;;;;;;;0.28;0.28;;;;;;;0.98;70.62;102742.94;5097846;28;20034;-79
2024/01/20 02:27:16;;;;;;;0.20;0.20;;;;;;;0.94;71.01;102736.66;5094075;28;20016;-79
2024/01/20 02:29:42;;;;;;;0.28;0.28;;;;;;;0.96;70.82;102741.13;5096991;28;20028;-79
2024/01/20 02:32:09;;;;;;;0.20;0.20;;;;;;;0.94;71.02;102763.63;5087519;28;20048;-79
2024/01/20 02:34:37;;;;;;;0.20;0.20;;;;;;;0.86;71.38;102758.84;5095308;28;20068;-79
2024/01/20 02:37:06;;;;;;;0.30;0.30;;;;;;;0.97;71.16;102747.22;5090992;28;20115;-78
2024/01/20 02:39:32;;;;;;;0.20;0.20;;;;;;;0.97;70.65;102757.69;5094182;28;20028;-78
2024/01/20 02:41:58;;;;;;;0.25;0.25;;;;;;;0.93;71.01;102755.75;5093868;28;20031;-78
2024/01/20 02:44:25;;;;;;;0.30;0.30;;;;;;;0.92;71.27;102744.41;5082930;28;20089;-78
2024/01/20 02:46:52;;;;;;;0.20;0.20;;;;;;;0.94;71.15;102753.19;5093243;28;20040;-78
2024/01/20 02:49:19;;;;;;;0.20;0.20;;;;;;;0.92;71.02;102754.84;5079096;28;20040;-78
2024/01/20 02:51:45;;;;;;;0.50;0.50;;;;;;;0.89;71.01;102753.81;5092956;28;20438;-79
2024/01/20 02:54:11;;;;;;;0.40;0.40;;;;;;;0.90;70.82;102750.38;5095378;28;20028;-79
2024/01/20 02:56:37;;;;;;;1.08;1.08;;;;;;;0.96;70.71;102748.09;5087455;28;20036;-79
2024/01/20 02:59:03;;;;;;;1.50;1.42;;;;;;;0.90;71.08;102750.38;5094489;28;20020;-79
2024/01/20 03:01:30;;;;;;;0.20;0.20;;;;;;;0.86;70.82;102749.31;5091108;28;20051;-79
2024/01/20 03:03:56;;;;;;;0.88;0.88;;;;;;;0.91;71.00;102749.53;5086419;28;20037;-79
2024/01/20 03:06:22;;;;;;;0.73;0.73;;;;;;;0.91;70.78;102747.84;5082267;28;20443;-78
2024/01/20 03:08:48;;;;;;;0.65;0.65;;;;;;;0.91;70.66;102746.94;5090830;28;20039;-79
2024/01/20 03:11:15;;;;;;;0.30;0.30;;;;;;;0.96;70.78;102746.34;5095380;28;20035;-79
2024/01/20 03:13:41;;;;;;;0.50;0.50;;;;;;;0.92;70.91;102759.16;5094301;28;20020;-78
2024/01/20 03:16:08;;;;;;;0.38;0.38;;;;;;;0.87;70.89;102760.66;5094385;28;20039;-79
2024/01/20 03:18:37;;;;;;;0.20;0.20;;;;;;;0.91;70.79;102758.28;5085986;28;20032;-79
2024/01/20 03:21:04;;;;;;;0.57;0.57;;;;;;;0.93;70.57;102745.31;5095044;28;20027;-80
2024/01/20 03:23:30;;;;;;;1.10;1.10;;;;;;;0.94;70.54;102760.16;5088016;28;20020;-80
2024/01/20 03:25:56;;;;;;;0.20;0.20;;;;;;;0.88;70.70;102763.31;5096738;28;20491;-80
2024/01/20 03:28:22;;;;;;;0.30;0.30;;;;;;;0.92;70.36;102760.06;5089938;28;20120;-80
2024/01/20 03:30:48;;;;;;;0.20;0.20;;;;;;;0.87;70.71;102766.75;5096137;28;20103;-80
2024/01/20 03:33:14;;;;;;;0.30;0.30;;;;;;;0.83;70.70;102759.59;5092941;28;20089;-80
2024/01/20 03:35:40;;;;;;;2.03;1.92;;;;;;;0.79;70.88;102752.44;5092584;28;20038;-80
2024/01/20 03:38:07;;;;;;;0.20;0.20;;;;;;;0.76;70.97;102754.88;5089028;28;20092;-80
2024/01/20 03:40:33;;;;;;;0.30;0.30;;;;;;;0.75;71.16;102755.72;5095229;28;20525;-79
2024/01/20 03:42:59;;;;;;;0.30;0.30;;;;;;;0.83;70.75;102759.59;5093093;28;20406;-79
2024/01/20 03:45:25;;;;;;;0.20;0.20;;;;;;;0.73;70.80;102766.06;5096962;28;20033;-80
2024/01/20 03:47:51;;;;;;;0.20;0.20;;;;;;;0.78;71.15;102771.50;5092445;28;20024;-80
2024/01/20 03:50:17;;;;;;;0.20;0.20;;;;;;;0.76;70.86;102767.91;5080923;28;20047;-80
2024/01/20 03:52:44;;;;;;;0.20;0.20;;;;;;;0.82;71.30;102770.84;5088633;28;20039;-79
2024/01/20 03:55:10;;;;;;;0.30;0.30;;;;;;;0.79;71.21;102773.31;5086988;28;20060;-79
2024/01/20 03:57:36;;;;;;;0.20;0.20;;;;;;;0.71;71.41;102779.84;5097276;28;20495;-79
2024/01/20 04:00:04;;;;;;;0.85;0.85;;;;;;;0.74;71.52;102780.00;5096263;28;20062;-80
2024/01/20 04:02:30;;;;;;;0.22;0.22;;;;;;;0.80;71.09;102775.13;5101299;28;20027;-79
2024/01/20 04:04:57;;;;;;;3.67;2.80;;;;;;;0.79;71.09;102774.19;5103765;28;20100;-80
2024/01/20 04:07:23;;;;;;;0.20;0.20;;;;;;;0.78;71.20;102767.19;5095324;28;20190;-79
2024/01/20 04:09:49;;;;;;;0.20;0.20;;;;;;;0.79;71.03;102779.41;5094339;28;20047;-80
2024/01/20 04:12:15;;;;;;;1.02;1.00;;;;;;;0.75;71.05;102787.03;5101057;28;20050;-79
2024/01/20 04:14:41;;;;;;;0.20;0.20;;;;;;;0.74;71.34;102775.69;5095315;28;20028;-80
2024/01/20 04:17:07;;;;;;;2.15;1.95;;;;;;;0.76;71.62;102773.13;5092136;28;20052;-80
2024/01/20 04:19:33;;;;;;;0.10;0.10;;;;;;;0.75;71.56;102781.81;5089305;28;20033;-80
2024/01/20 04:21:59;;;;;;;6.03;3.45;;;;;;;0.77;71.36;102769.72;5087200;28;20043;-80
2024/01/20 04:24:26;;;;;;;0.20;0.20;;;;;;;0.68;71.64;102775.34;5095076;28;20024;-81
2024/01/20 04:26:52;;;;;;;0.73;0.73;;;;;;;0.79;71.42;102774.19;5086358;28;20082;-81
2024/01/20 04:29:18;;;;;;;0.20;0.20;;;;;;;0.77;71.56;102770.63;5088686;28;20100;-81
2024/01/20 04:31:44;;;;;;;0.77;0.77;;;;;;;0.83;71.58;102770.03;5093825;28;20028;-81
2024/01/20 04:34:10;;;;;;;0.88;0.88;;;;;;;0.78;71.56;102776.72;5095029;28;20039;-81
2024/01/20 04:36:36;;;;;;;0.30;0.30;;;;;;;0.79;71.58;102776.81;5082622;28;20154;-81
2024/01/20 04:39:03;;;;;;;0.30;0.30;;;;;;;0.84;71.63;102771.84;5090536;28;20040;-81
2024/01/20 04:41:29;;;;;;;13.90;2.47;;;;;;;0.86;71.52;102772.81;5095087;28;20047;-81
2024/01/20 04:43:55;;;;;;;0.95;0.95;;;;;;;0.92;71.53;102775.75;5094462;28;20127;-81
2024/01/20 04:46:21;;;;;;;1.75;1.70;;;;;;;0.85;71.83;102778.84;5093388;28;20068;-80
2024/01/20 04:48:47;;;;;;;0.20;0.20;;;;;;;0.94;71.61;102784.53;5081122;28;20082;-80
2024/01/20 04:51:13;;;;;;;0.20;0.20;;;;;;;1.03;71.39;102791.03;5079733;28;20119;-80
2024/01/20 04:53:39;;;;;;;0.13;0.13;;;;;;;1.00;71.42;102796.09;5085807;28;20042;-81
2024/01/20 04:56:06;;;;;;;1.88;0.98;;;;;;;1.05;71.15;102798.13;5097507;28;20089;-81
2024/01/20 04:58:32;;;;;;;0.38;0.38;;;;;;;1.02;71.32;102797.06;5098383;28;20111;-81
2024/01/20 05:00:59;;;;;;;0.43;0.43;;;;;;;1.01;70.83;102788.34;5096967;28;20036;-79
2024/01/20 05:03:25;;;;;;;0.20;0.20;;;;;;;1.00;70.83;102791.78;5083806;28;20035;-79
2024/01/20 05:05:51;;;;;;;0.40;0.40;;;;;;;0.95;70.67;102793.28;5096846;28;20092;-78
2024/01/20 05:08:18;;;;;;;0.20;0.20;;;;;;;0.87;70.88;102803.28;5098493;28;20040;-80
2024/01/20 05:10:45;;;;;;;0.20;0.20;;;;;;;0.80;70.96;102796.00;5095896;28;20020;-80
2024/01/20 05:13:11;;;;;;;0.75;0.75;;;;;;;0.83;70.93;102796.13;5097149;28;20032;-79
2024/01/20 05:15:38;;;;;;;2.75;2.65;;;;;;;0.81;70.76;102792.56;5094880;28;20437;-79
2024/01/20 05:18:04;;;;;;;6.97;2.58;;;;;;;0.77;70.99;102801.94;5083852;28;20055;-79
2024/01/20 05:20:30;;;;;;;1.55;1.45;;;;;;;0.75;70.95;102805.28;5088949;28;20025;-78
2024/01/20 05:22:56;;;;;;;0.28;0.28;;;;;;;0.77;71.08;102807.16;5082728;28;20031;-79
2024/01/20 05:25:23;;;;;;;1.48;1.10;;;;;;;0.66;71.40;102815.22;5080196;28;20105;-79
2024/01/20 05:27:49;;;;;;;0.95;0.95;;;;;;;0.73;71.29;102814.75;5096241;28;20020;-79
2024/01/20 05:30:16;;;;;;;0.25;0.25;;;;;;;0.75;71.67;102818.34;5095190;28;20032;-79
2024/01/20 05:32:42;;;;;;;1.73;1.63;;;;;;;0.70;71.45;102817.16;5084511;28;20046;-79
2024/01/20 05:35:08;;;;;;;0.20;0.20;;;;;;;0.73;71.53;102814.75;5089337;28;20418;-79
2024/01/20 05:37:34;;;;;;;0.20;0.20;;;;;;;0.62;71.74;102816.78;5094799;28;20095;-78
2024/01/20 05:40:02;;;;;;;0.20;0.20;;;;;;;0.71;71.93;102816.38;5097043;28;20064;-79
2024/01/20 05:42:28;;;;;;;2.83;2.42;;;;;;;0.62;72.00;102833.34;5095993;28;20063;-79
2024/01/20 05:44:55;;;;;;;0.15;0.15;;;;;;;0.70;72.00;102830.22;5096918;28;20028;-79
2024/01/20 05:47:21;;;;;;;0.28;0.28;;;;;;;0.71;71.71;102837.25;5097097;28;20031;-79
2024/01/20 05:49:47;;;;;;;0.20;0.20;;;;;;;0.72;72.12;102829.47;5080946;28;20043;-79
2024/01/20 05:52:13;;;;;;;0.55;0.55;;;;;;;0.69;71.75;102834.56;5090437;28;20559;-79
2024/01/20 05:54:39;;;;;;;10.65;2.05;;;;;;;0.78;71.74;102829.81;5093586;28;20039;-80
2024/01/20 05:57:05;;;;;;;0.45;0.45;;;;;;;0.80;71.61;102827.31;5085448;28;20087;-79
2024/01/20 05:59:31;;;;;;;2.00;1.23;;;;;;;0.79;71.39;102833.34;5083333;28;20069;-79
2024/01/20 06:01:58;;;;;;;0.20;0.20;;;;;;;0.75;71.41;102827.06;5094731;28;20028;-79
2024/01/20 06:04:24;;;;;;;1.48;1.48;;;;;;;0.75;71.62;102828.78;5097715;28;20429;-79
2024/01/20 06:06:50;;;;;;;0.20;0.20;;;;;;;0.74;71.18;102835.69;5088652;28;20486;-78
2024/01/20 06:09:16;;;;;;;0.20;0.20;;;;;;;0.80;71.18;102832.53;5086219;28;20058;-79
2024/01/20 06:11:42;;;;;;;0.20;0.20;;;;;;;0.70;71.46;102835.44;5093392;28;20050;-79
2024/01/20 06:14:08;;;;;;;0.28;0.28;;;;;;;0.82;71.38;102838.69;5096720;28;20065;-79
2024/01/20 06:16:38;;;;;;;0.30;0.30;;;;;;;0.84;71.47;102850.13;5094648;28;20036;-79
2024/01/20 06:19:05;;;;;;;0.20;0.20;;;;;;;0.81;71.25;102852.59;5094464;28;20380;-79
2024/01/20 06:21:31;;;;;;;0.20;0.20;;;;;;;0.89;71.26;102838.22;5093046;28;20035;-78
2024/01/20 06:23:58;;;;;;;0.35;0.35;;;;;;;0.87;71.44;102839.81;5089625;28;20039;-79
2024/01/20 06:26:24;;;;;;;0.95;0.95;;;;;;;0.95;71.26;102848.09;5083233;28;20032;-78
2024/01/20 06:28:50;;;;;;;3.92;1.27;;;;;;;1.00;71.16;102837.84;5083638;28;20032;-79
2024/01/20 06:31:25;;;;;;;1.30;1.30;;;;;;;1.07;71.12;102830.44;5084040;28;20400;-79
2024/01/20 06:33:52;;;;;;;0.20;0.20;;;;;;;0.98;71.24;102836.91;5093898;28;20028;-78
2024/01/20 06:36:19;;;;;;;0.85;0.85;;;;;;;0.91;71.00;102840.88;5087993;28;20020;-78
2024/01/20 06:38:46;;;;;;;0.30;0.30;;;;;;;0.97;70.96;102841.19;5097794;28;20096;-78
2024/01/20 06:41:12;;;;;;;0.55;0.55;;;;;;;0.93;70.77;102840.16;5092876;28;20043;-79
2024/01/20 06:43:38;;;;;;;2.92;1.92;;;;;;;0.88;70.71;102846.84;5085101;28;20024;-79
2024/01/20 06:46:04;;;;;;;0.28;0.28;;;;;;;0.79;70.84;102849.00;5093822;28;20031;-79
2024/01/20 06:48:33;;;;;;;2.17;2.03;;;;;;;0.78;70.86;102848.06;5076156;28;20368;-79
2024/01/20 06:51:01;;;;;;;1.10;1.10;;;;;;;0.74;71.04;102853.06;5091525;28;20495;-79
2024/01/20 06:53:27;;;;;;;0.20;0.20;;;;;;;0.72;70.77;102841.66;5089499;28;20035;-79
2024/01/20 06:55:54;;;;;;;0.20;0.20;;;;;;;0.74;70.77;102847.84;5095924;28;20032;-79
2024/01/20 06:58:20;;;;;;;0.30;0.30;;;;;;;0.61;71.13;102835.84;5086973;28;20039;-79
2024/01/20 07:00:46;;;;;;;1.20;1.20;;;;;;;0.57;71.32;102847.81;5095894;28;20050;-79
2024/01/20 07:03:13;;;;;;;0.30;0.30;;;;;;;0.64;71.38;102860.41;5083309;28;20070;-79
2024/01/20 07:05:39;;;;;;;1.73;1.42;;;;;;;0.68;71.34;102863.19;5092358;28;20040;-79
2024/01/20 07:08:05;;;;;;;0.20;0.20;;;;;;;0.67;71.28;102862.25;5080729;28;20029;-80
2024/01/20 07:10:32;;;;;;;0.20;0.20;;;;;;;0.67;71.45;102861.38;5084680;28;20065;-80
2024/01/20 07:12:58;;;;;;;0.20;0.20;;;;;;;0.68;71.29;102863.19;5093169;28;20445;-79
2024/01/20 07:15:25;;;;;;;0.30;0.30;;;;;;;0.63;71.04;102871.63;5092695;28;20035;-80
2024/01/20 07:17:53;;;;;;;0.20;0.20;;;;;;;0.64;71.03;102869.94;5096638;28;20086;-79
2024/01/20 07:20:19;;;;;;;1.85;1.75;;;;;;;0.60;71.29;102865.38;5089468;28;20032;-79
2024/01/20 07:22:46;;;;;;;0.20;0.20;;;;;;;0.60;71.52;102868.00;5086817;28;20032;-80
2024/01/20 07:25:12;;;;;;;3.60;3.40;;;;;;;0.56;71.24;102864.31;5090640;28;20035;-80
2024/01/20 07:27:38;;;;;;;0.20;0.20;;;;;;;0.67;71.20;102866.59;5080686;28;20145;-80
2024/01/20 07:30:05;;;;;;;0.65;0.65;;;;;;;0.61;71.29;102873.28;5080012;28;20473;-79
2024/01/20 07:32:31;;;;;;;0.93;0.93;;;;;;;0.55;71.34;102870.34;5087687;28;20039;-79
2024/01/20 07:34:57;;;;;;;0.35;0.35;;;;;;;0.63;71.56;102861.19;5092638;28;20081;-79
2024/01/20 07:37:23;;;;;;;0.22;0.22;;;;;;;0.57;71.90;102866.09;5087513;28;20028;-80
2024/01/20 07:39:49;;;;;;;1.20;0.43;;;;;;;0.56;71.83;102864.31;5091505;28;20053;-79
2024/01/20 07:42:15;;;;;;;0.75;0.75;;;;;;;0.63;71.72;102863.81;5095418;28;20051;-79
2024/01/20 07:44:42;;;;;;;0.20;0.20;;;;;;;0.64;71.84;102869.94;5098504;28;20020;-79
2024/01/20 07:47:08;;;;;;;0.20;0.20;;;;;;;0.74;71.86;102871.34;5098712;28;20038;-79
2024/01/20 07:49:34;;;;;;;0.20;0.20;;;;;;;0.85;71.44;102862.34;5089620;28;20031;-79
2024/01/20 07:52:00;;;;;;;4.30;1.80;;;;;;;0.81;71.70;102860.41;5088878;28;20039;-80
2024/01/20 07:54:26;;;;;;;0.30;0.30;;;;;;;0.86;71.71;102856.34;5081043;28;20028;-80
2024/01/20 07:56:52;;;;;;;0.40;0.40;;;;;;;0.87;71.60;102871.16;5075659;28;20036;-80
2024/01/20 07:59:19;;;;;;;0.20;0.20;;;;;;;0.92;71.67;102889.66;5076077;28;20047;-81
2024/01/20 08:01:45;;;;;;;0.20;0.20;;;;;;;0.99;71.62;102885.69;5075208;28;20039;-80
2024/01/20 08:04:11;;;;;;;0.20;0.20;;;;;;;1.00;71.75;102892.66;5075894;28;20252;-80
2024/01/20 08:06:37;;;;;;;0.68;0.68;;;;;;;1.02;71.49;102891.06;5086598;28;20423;-80
2024/01/20 08:09:04;;;;;;;0.20;0.20;;;;;;;1.01;72.00;102876.19;5095974;28;20024;-80
2024/01/20 08:11:30;;;;;;;0.20;0.20;;;;;;;1.06;72.00;102885.16;5096059;28;20157;-80
2024/01/20 08:13:56;;;;;;;0.20;0.20;;;;;;;0.97;72.02;102885.56;5098777;28;20055;-80
2024/01/20 08:16:22;;;;;;;0.20;0.20;;;;;;;1.07;71.96;102882.66;5101369;28;20056;-80
2024/01/20 08:18:48;;;;;;;0.20;0.20;;;;;;;1.05;72.00;102892.09;5100498;28;20391;-80
2024/01/20 08:21:14;;;;;;;0.25;0.25;;;;;;;1.17;71.78;102901.41;5090775;28;20025;-81
2024/01/20 08:23:41;;;;;;;0.20;0.20;;;;;;;1.19;71.75;102900.66;5091286;28;20039;-82
2024/01/20 08:26:07;;;;;;;0.50;0.50;;;;;;;1.25;71.91;102907.94;5091735;28;20035;-81
2024/01/20 08:28:33;;;;;;;0.68;0.52;;;;;;;1.32;71.66;102903.91;5087998;28;20032;-82
2024/01/20 08:31:00;;;;;;;0.50;0.50;;;;;;;1.34;71.74;102912.72;5089258;28;20537;-81
2024/01/20 08:33:26;;;;;;;1.13;1.13;;;;;;;1.31;71.66;102921.31;5099961;28;20085;-80
2024/01/20 08:35:52;;;;;;;1.42;1.42;;;;;;;1.34;71.84;102910.13;5097929;28;20054;-80
2024/01/20 08:38:18;;;;;;;0.32;0.32;;;;;;;1.37;71.95;102915.47;5099068;28;20020;-80
2024/01/20 08:40:44;;;;;;;0.30;0.30;;;;;;;1.38;71.83;102910.31;5097842;28;20032;-80
2024/01/20 08:43:11;;;;;;;0.45;0.45;;;;;;;1.34;71.76;102920.56;5095780;28;20028;-80
2024/01/20 08:45:37;;;;;;;0.30;0.30;;;;;;;1.33;72.00;102918.75;5098085;28;20561;-80
2024/01/20 08:48:03;;;;;;;0.65;0.65;;;;;;;1.35;71.88;102928.47;5098435;28;20059;-80
2024/01/20 08:50:29;;;;;;;0.28;0.28;;;;;;;1.50;71.81;102923.13;5096982;28;20507;-81
2024/01/20 08:52:55;;;;;;;0.28;0.28;;;;;;;1.42;72.19;102927.06;5094377;28;20084;-80
2024/01/20 08:55:22;;;;;;;0.20;0.20;;;;;;;1.60;72.05;102935.84;5092867;28;20052;-80
2024/01/20 08:57:48;;;;;;;0.55;0.55;;;;;;;1.70;71.63;102939.81;5096387;28;20105;-79
2024/01/20 09:00:16;;;;;;;0.63;0.63;;;;;;;1.76;71.51;102939.25;5091881;28;20044;-79
2024/01/20 09:02:43;;;;;;;0.30;0.30;;;;;;;1.72;71.64;102930.34;5092998;28;20493;-80
2024/01/20 09:05:10;;;;;;;0.30;0.30;;;;;;;1.74;71.69;102923.44;5098821;28;20040;-80
2024/01/20 09:07:36;;;;;;;0.25;0.25;;;;;;;1.71;71.76;102922.44;5092816;28;20055;-79
2024/01/20 09:10:03;;;;;;;0.20;0.20;;;;;;;1.87;72.03;102930.22;5098898;28;20061;-79
2024/01/20 09:12:30;;;;;;;1.90;1.58;;;;;;;1.96;71.30;102939.31;5098374;28;20042;-79
2024/01/20 09:14:57;;;;;;;0.20;0.20;;;;;;;2.02;71.42;102934.38;5099864;28;20040;-80
2024/01/20 09:17:23;;;;;;;0.50;0.50;;;;;;;1.91;71.50;102926.91;5099534;28;20020;-80
2024/01/20 09:19:49;;;;;;;0.30;0.30;;;;;;;2.01;71.28;102924.78;5098961;28;20040;-79
2024/01/20 09:22:20;;;;;;;0.30;0.30;;;;;;;2.10;71.02;102933.06;5091549;28;20020;-79
2024/01/20 09:24:46;;;;;;;0.52;0.52;;;;;;;2.12;70.88;102939.25;5094757;28;20580;-78
2024/01/20 09:27:12;;;;;;;3.60;3.30;;;;;;;1.96;71.08;102939.31;5090163;28;20115;-78
2024/01/20 09:29:38;;;;;;;0.50;0.50;;;;;;;2.13;71.20;102938.44;5076764;28;20024;-78
2024/01/20 09:32:04;;;;;;;0.30;0.30;;;;;;;2.06;70.79;102925.88;5076250;28;20043;-78
2024/01/20 09:34:31;;;;;;;0.40;0.40;;;;;;;2.15;70.88;102931.56;5089924;28;20494;-79
2024/01/20 09:36:57;;;;;;;0.60;0.60;;;;;;;2.07;70.66;102943.38;5096576;28;20032;-78
2024/01/20 09:39:23;;;;;;;0.20;0.20;;;;;;;2.11;70.76;102947.94;5096707;28;20499;-78
2024/01/20 09:41:50;;;;;;;0.20;0.20;;;;;;;2.02;70.82;102942.22;5095800;28;20043;-78
2024/01/20 09:44:16;;;;;;;0.20;0.20;;;;;;;2.01;70.84;102945.69;5098336;28;20020;-78
2024/01/20 09:46:43;;;;;;;2.08;1.98;;;;;;;2.17;70.70;102935.16;5098258;28;20068;-79
2024/01/20 09:49:09;;;;;;;0.20;0.20;;;;;;;2.26;70.78;102940.81;5087419;28;20048;-80
2024/01/20 09:51:41;;;;;;;1.65;1.55;;;;;;;2.43;70.39;102931.16;5087228;28;20605;-79
2024/01/20 09:54:08;;;;;;;0.30;0.30;;;;;;;2.57;70.27;102937.03;5091900;28;20039;-79
2024/01/20 09:56:34;;;;;;;0.20;0.20;;;;;;;2.62;69.65;102937.25;5098131;28;20036;-79
2024/01/20 09:59:01;;;;;;;2.63;2.50;;;;;;;2.56;69.85;102939.59;5098433;28;20034;-80
2024/01/20 10:01:28;;;;;;;0.45;0.43;;;;;;;2.61;69.49;102931.97;5098860;28;20034;-81
2024/01/20 10:04:00;;;;;;;0.35;0.35;;;;;;;2.57;69.06;102936.16;5097387;28;20055;-78
2024/01/20 10:06:26;;;;;;;5.07;4.07;;;;;;;2.67;68.75;102940.09;5095168;28;20119;-78
2024/01/20 10:08:53;;;;;;;0.30;0.30;;;;;;;2.68;69.23;102952.34;5095056;28;20391;-78
2024/01/20 10:11:19;;;;;;;0.40;0.40;;;;;;;2.65;68.85;102949.59;5096599;28;20039;-78
2024/01/20 10:13:45;;;;;;;0.20;0.20;;;;;;;2.64;69.10;102948.72;5097638;28;20051;-78
2024/01/20 10:16:11;;;;;;;0.63;0.63;;;;;;;2.63;68.84;102951.22;5097468;28;20080;-78
2024/01/20 10:18:37;;;;;;;0.28;0.28;;;;;;;2.49;69.06;102954.09;5097996;28;20020;-78
2024/01/20 10:21:05;;;;;;;0.45;0.45;;;;;;;2.38;69.44;102957.91;5101452;28;20032;-78
2024/01/20 10:23:35;;;;;;;0.55;0.55;;;;;;;2.56;69.00;102957.91;5091284;28;20032;-77
2024/01/20 10:26:06;;;;;;;0.40;0.40;;;;;;;2.49;68.97;102954.09;5098156;28;20034;-78
2024/01/20 10:28:33;;;;;;;0.20;0.20;;;;;;;2.52;68.99;102959.47;5097976;28;20058;-78
2024/01/20 10:31:08;;;;;;;0.77;0.73;;;;;;;2.66;69.23;102940.91;5078744;28;20112;-79
2024/01/20 10:33:34;;;;;;;0.20;0.20;;;;;;;2.57;68.83;102957.09;5075741;28;20039;-78
2024/01/20 10:36:02;;;;;;;1.30;1.30;;;;;;;2.58;68.79;102954.53;5092567;28;20254;-78
2024/01/20 10:38:29;;;;;;;0.28;0.28;;;;;;;2.67;68.98;102953.19;5096750;28;20024;-78
2024/01/20 10:40:58;;;;;;;0.20;0.20;;;;;;;2.82;68.94;102953.88;5097876;28;20040;-78
2024/01/20 10:43:28;;;;;;;1.90;1.83;;;;;;;2.89;68.59;102955.97;5096593;28;20031;-78
2024/01/20 10:46:26;;;;;;;0.20;0.20;;;;;;;2.98;68.08;102963.34;5096907;28;20028;-78
2024/01/20 10:48:54;;;;;;;0.22;0.22;;;;;;;3.03;68.05;102955.69;5086942;28;20024;-78
2024/01/20 10:51:27;;;;;;;0.75;0.75;;;;;;;2.96;67.68;102961.47;5096178;28;20024;-78
2024/01/20 10:53:56;;;;;;;6.55;1.63;;;;;;;3.14;67.60;102957.06;5098118;28;20027;-78
2024/01/20 10:56:24;;;;;;;1.15;1.05;;;;;;;3.12;67.77;102957.84;5096713;28;20020;-78
2024/01/20 10:59:02;;;;;;;0.20;0.20;;;;;;;3.13;67.13;102965.75;5099957;28;20063;-79
2024/01/20 11:01:29;;;;;;;1.00;1.00;;;;;;;3.27;67.39;102962.88;5095377;28;20032;-78
2024/01/20 11:03:55;;;;;;;0.25;0.25;;;;;;;3.34;67.17;102950.09;5095885;28;20434;-78
2024/01/20 11:06:24;;;;;;;0.20;0.20;;;;;;;3.36;66.84;102955.41;5098250;28;20051;-78
2024/01/20 11:08:51;;;;;;;5.00;1.23;;;;;;;3.36;66.70;102964.13;5095725;28;20016;-78
2024/01/20 11:11:20;;;;;;;0.30;0.30;;;;;;;3.49;66.77;102955.09;5096384;28;20395;-78
2024/01/20 11:13:47;;;;;;;0.20;0.20;;;;;;;3.48;66.33;102955.94;5095962;28;20024;-78
2024/01/20 11:16:21;;;;;;;0.10;0.10;;;;;;;3.53;65.89;102957.03;5096795;28;20036;-78
2024/01/20 11:18:48;;;;;;;0.22;0.22;;;;;;;3.52;65.95;102949.97;5086274;28;20020;-79
2024/01/20 11:21:16;;;;;;;1.10;1.10;;;;;;;3.59;65.92;102947.63;5093828;28;20031;-79
2024/01/20 11:24:01;;;;;;;0.30;0.30;;;;;;;3.59;65.50;102960.72;5095197;28;20042;-79
2024/01/20 11:26:33;;;;;;;0.20;0.20;;;;;;;3.40;65.87;102938.97;5096104;28;20046;-78
2024/01/20 11:29:02;;;;;;;0.63;0.63;;;;;;;3.43;65.79;102952.22;5094994;28;20038;-79
2024/01/20 11:31:30;;;;;;;0.47;0.47;;;;;;;3.38;65.85;102943.28;5095026;28;20099;-78